createdAt,value
2018-05-23T00:00:32.983Z,9.80
2018-05-23T00:01:33.121Z,9.70
2018-05-23T00:02:33.261Z,10.00
2018-05-23T00:03:33.405Z,10.60
2018-05-23T00:04:33.540Z,11.30
2018-05-23T00:05:33.684Z,10.40
2018-05-23T00:06:33.828Z,10.40
2018-05-23T00:07:33.968Z,10.50
2018-05-23T00:08:34.101Z,10.60
2018-05-23T00:09:34.253Z,10.00
2018-05-23T00:10:34.385Z,9.60
2018-05-23T00:11:34.524Z,10.40
2018-05-23T00:12:34.661Z,10.10
2018-05-23T00:13:34.810Z,9.30
2018-05-23T00:14:34.970Z,10.00
2018-05-23T00:15:35.100Z,9.50
2018-05-23T00:16:35.238Z,9.10
2018-05-23T00:17:35.451Z,8.90
2018-05-23T00:18:35.466Z,9.90
2018-05-23T00:19:35.599Z,9.70
2018-05-23T00:20:35.740Z,10.00
2018-05-23T00:21:35.878Z,8.80
2018-05-23T00:22:36.019Z,9.40
2018-05-23T00:23:36.149Z,9.80
2018-05-23T00:24:36.288Z,9.40
2018-05-23T00:25:36.440Z,9.00
2018-05-23T00:26:36.569Z,10.40
2018-05-23T00:27:36.694Z,8.90
2018-05-23T00:28:36.841Z,8.40
2018-05-23T00:29:36.973Z,8.70
2018-05-23T00:30:37.115Z,8.50
2018-05-23T00:31:37.256Z,9.20
2018-05-23T00:32:37.394Z,8.80
2018-05-23T00:33:37.533Z,9.10
2018-05-23T00:34:37.677Z,9.60
2018-05-23T00:35:37.828Z,10.20
2018-05-23T00:36:37.964Z,9.80
2018-05-23T00:37:38.105Z,9.90
2018-05-23T00:38:38.257Z,9.90
2018-05-23T00:39:38.392Z,10.00
2018-05-23T00:40:38.584Z,9.60
2018-05-23T00:41:38.658Z,9.60
2018-05-23T00:42:38.794Z,10.00
2018-05-23T00:43:38.937Z,9.80
2018-05-23T00:44:39.077Z,9.90
2018-05-23T00:45:39.225Z,9.40
2018-05-23T00:46:39.370Z,9.90
2018-05-23T00:47:39.511Z,9.90
2018-05-23T00:48:39.655Z,10.00
2018-05-23T00:49:39.796Z,10.00
2018-05-23T00:50:39.938Z,10.20
2018-05-23T00:51:40.075Z,9.90
2018-05-23T00:52:40.220Z,9.90
2018-05-23T00:53:40.365Z,9.90
2018-05-23T00:54:40.502Z,9.90
2018-05-23T00:55:40.651Z,9.90
2018-05-23T00:56:40.793Z,10.00
2018-05-23T00:57:40.933Z,9.90
2018-05-23T00:58:41.082Z,9.40
2018-05-23T00:59:41.225Z,9.50
2018-05-23T01:00:41.364Z,10.30
2018-05-23T01:01:41.506Z,10.30
2018-05-23T01:02:41.648Z,10.80
2018-05-23T01:03:41.784Z,11.00
2018-05-23T01:04:41.928Z,10.30
2018-05-23T01:05:42.065Z,10.40
2018-05-23T01:06:42.203Z,10.90
2018-05-23T01:07:42.382Z,10.90
2018-05-23T01:08:42.524Z,10.30
2018-05-23T01:09:42.662Z,11.30
2018-05-23T01:10:42.801Z,11.20
2018-05-23T01:11:42.943Z,10.40
2018-05-23T01:12:43.085Z,11.80
2018-05-23T01:13:43.227Z,10.90
2018-05-23T01:14:43.365Z,11.00
2018-05-23T01:15:43.502Z,10.90
2018-05-23T01:16:43.641Z,11.00
2018-05-23T01:17:43.782Z,10.70
2018-05-23T01:18:43.926Z,10.20
2018-05-23T01:19:44.069Z,10.60
2018-05-23T01:20:44.208Z,10.80
2018-05-23T01:21:44.350Z,10.70
2018-05-23T01:22:44.486Z,10.90
2018-05-23T01:23:44.629Z,10.20
2018-05-23T01:24:44.774Z,10.50
2018-05-23T01:25:44.910Z,10.50
2018-05-23T01:26:45.048Z,10.30
2018-05-23T01:27:45.187Z,10.40
2018-05-23T01:28:45.328Z,10.20
2018-05-23T01:29:45.482Z,11.00
2018-05-23T01:30:45.637Z,11.40
2018-05-23T01:31:45.778Z,10.80
2018-05-23T01:32:45.916Z,10.90
2018-05-23T01:33:46.069Z,10.60
2018-05-23T01:34:46.214Z,10.40
2018-05-23T01:35:46.352Z,10.80
2018-05-23T01:36:46.495Z,10.10
2018-05-23T01:37:46.632Z,10.50
2018-05-23T01:38:46.770Z,10.30
2018-05-23T01:39:46.911Z,11.00
2018-05-23T01:40:47.056Z,11.20
2018-05-23T01:41:47.202Z,10.30
2018-05-23T01:42:47.349Z,10.70
2018-05-23T01:43:47.485Z,10.10
2018-05-23T01:44:47.629Z,10.30
2018-05-23T01:45:47.765Z,10.30
2018-05-23T01:46:47.905Z,11.00
2018-05-23T01:47:48.067Z,9.90
2018-05-23T01:48:48.215Z,9.90
2018-05-23T01:49:48.352Z,10.40
2018-05-23T01:50:48.494Z,11.20
2018-05-23T01:51:48.636Z,10.60
2018-05-23T01:52:48.779Z,10.70
2018-05-23T01:53:48.915Z,10.60
2018-05-23T01:54:49.079Z,10.30
2018-05-23T01:55:49.220Z,10.40
2018-05-23T01:56:49.366Z,10.70
2018-05-23T01:57:49.501Z,10.60
2018-05-23T01:58:49.638Z,11.10
2018-05-23T01:59:49.774Z,11.00
2018-05-23T02:00:49.917Z,10.90
2018-05-23T02:01:50.061Z,11.00
2018-05-23T02:02:50.199Z,11.20
2018-05-23T02:03:50.340Z,11.30
2018-05-23T02:04:50.488Z,11.30
2018-05-23T02:05:50.619Z,11.70
2018-05-23T02:06:51.289Z,11.80
2018-05-23T02:07:50.957Z,11.30
2018-05-23T02:08:51.102Z,11.40
2018-05-23T02:09:51.286Z,11.70
2018-05-23T02:10:51.427Z,11.80
2018-05-23T02:11:51.573Z,11.80
2018-05-23T02:12:51.712Z,11.20
2018-05-23T02:13:51.853Z,11.10
2018-05-23T02:14:51.998Z,11.20
2018-05-23T02:15:52.134Z,11.50
2018-05-23T02:16:52.278Z,12.00
2018-05-23T02:17:52.423Z,11.60
2018-05-23T02:18:52.567Z,10.80
2018-05-23T02:19:52.712Z,11.30
2018-05-23T02:20:52.858Z,11.30
2018-05-23T02:21:53.797Z,11.20
2018-05-23T02:22:53.196Z,11.70
2018-05-23T02:23:53.334Z,11.90
2018-05-23T02:24:53.481Z,11.30
2018-05-23T02:25:53.625Z,11.10
2018-05-23T02:26:53.774Z,11.30
2018-05-23T02:27:53.916Z,11.00
2018-05-23T02:28:54.060Z,11.60
2018-05-23T02:29:54.195Z,11.20
2018-05-23T02:30:54.336Z,11.70
2018-05-23T02:31:54.471Z,11.20
2018-05-23T02:32:54.616Z,11.40
2018-05-23T02:33:54.767Z,11.30
2018-05-23T02:34:54.901Z,11.00
2018-05-23T02:35:55.037Z,10.70
2018-05-23T02:36:55.192Z,11.10
2018-05-23T02:37:55.335Z,10.80
2018-05-23T02:38:55.472Z,10.80
2018-05-23T02:39:55.619Z,11.10
2018-05-23T02:40:55.755Z,10.80
2018-05-23T02:41:55.894Z,11.60
2018-05-23T02:42:56.033Z,11.20
2018-05-23T02:43:56.179Z,10.90
2018-05-23T02:44:56.316Z,11.40
2018-05-23T02:45:56.455Z,11.20
2018-05-23T02:46:56.598Z,10.90
2018-05-23T02:47:56.737Z,11.60
2018-05-23T02:48:56.889Z,10.30
2018-05-23T02:49:57.029Z,10.40
2018-05-23T02:50:57.170Z,10.00
2018-05-23T02:51:57.307Z,9.70
2018-05-23T02:52:57.453Z,10.30
2018-05-23T02:53:57.591Z,9.70
2018-05-23T02:54:57.731Z,10.40
2018-05-23T02:55:57.870Z,9.50
2018-05-23T02:56:58.011Z,9.70
2018-05-23T02:57:58.157Z,10.20
2018-05-23T02:58:58.328Z,9.80
2018-05-23T02:59:58.447Z,9.80
2018-05-23T03:00:58.598Z,10.10
2018-05-23T03:01:58.738Z,9.60
2018-05-23T03:02:58.934Z,10.30
2018-05-23T03:03:59.026Z,9.90
2018-05-23T03:04:59.167Z,9.90
2018-05-23T03:05:59.313Z,9.90
2018-05-23T03:06:59.553Z,10.30
2018-05-23T03:07:59.572Z,10.00
2018-05-23T03:08:59.715Z,10.20
2018-05-23T03:09:59.857Z,10.80
2018-05-23T03:10:59.996Z,11.20
2018-05-23T03:12:00.137Z,10.60
2018-05-23T03:13:00.279Z,10.80
2018-05-23T03:14:00.423Z,10.60
2018-05-23T03:15:00.563Z,11.20
2018-05-23T03:16:00.796Z,10.70
2018-05-23T03:17:00.856Z,10.20
2018-05-23T03:18:00.997Z,10.50
2018-05-23T03:19:01.142Z,11.00
2018-05-23T03:20:01.282Z,10.80
2018-05-23T03:21:01.431Z,10.60
2018-05-23T03:22:01.586Z,11.40
2018-05-23T03:23:01.716Z,10.60
2018-05-23T03:24:01.857Z,11.10
2018-05-23T03:25:01.997Z,11.40
2018-05-23T03:26:02.133Z,10.70
2018-05-23T03:27:02.276Z,10.60
2018-05-23T03:28:02.420Z,10.90
2018-05-23T03:29:02.563Z,10.80
2018-05-23T03:30:02.711Z,10.60
2018-05-23T03:31:02.855Z,11.00
2018-05-23T03:32:02.997Z,10.70
2018-05-23T03:33:03.141Z,9.90
2018-05-23T03:34:03.285Z,10.00
2018-05-23T03:35:03.428Z,10.60
2018-05-23T03:36:03.573Z,10.40
2018-05-23T03:37:03.717Z,10.10
2018-05-23T03:38:03.857Z,10.30
2018-05-23T03:39:03.994Z,10.30
2018-05-23T03:40:04.132Z,10.50
2018-05-23T03:41:04.281Z,10.10
2018-05-23T03:42:04.412Z,10.20
2018-05-23T03:43:04.552Z,10.10
2018-05-23T03:44:04.699Z,9.80
2018-05-23T03:45:04.840Z,10.80
2018-05-23T03:46:04.979Z,10.70
2018-05-23T03:47:05.120Z,9.90
2018-05-23T03:48:05.269Z,10.20
2018-05-23T03:49:05.399Z,10.50
2018-05-23T03:50:05.546Z,11.60
2018-05-23T03:51:05.695Z,13.90
2018-05-23T03:52:05.830Z,11.90
2018-05-23T03:53:05.971Z,10.50
2018-05-23T03:54:06.108Z,11.60
2018-05-23T03:55:06.249Z,10.40
2018-05-23T03:56:06.400Z,10.80
2018-05-23T03:57:06.548Z,10.80
2018-05-23T03:58:06.682Z,10.00
2018-05-23T03:59:06.826Z,10.10
2018-05-23T04:00:06.969Z,10.50
2018-05-23T04:01:07.120Z,9.90
2018-05-23T04:02:07.258Z,10.00
2018-05-23T04:03:07.397Z,9.90
2018-05-23T04:04:07.537Z,10.20
2018-05-23T04:05:07.678Z,12.60
2018-05-23T04:06:07.816Z,9.50
2018-05-23T04:07:07.952Z,10.60
2018-05-23T04:08:08.095Z,9.90
2018-05-23T04:09:08.238Z,9.40
2018-05-23T04:10:08.383Z,9.50
2018-05-23T04:11:08.525Z,9.80
2018-05-23T04:12:08.665Z,9.40
2018-05-23T04:13:08.821Z,9.70
2018-05-23T04:14:08.952Z,9.30
2018-05-23T04:15:09.092Z,9.90
2018-05-23T04:16:09.243Z,9.70
2018-05-23T04:17:09.380Z,8.80
2018-05-23T04:18:09.524Z,9.70
2018-05-23T04:19:09.659Z,9.90
2018-05-23T04:20:09.801Z,9.00
2018-05-23T04:21:09.944Z,9.60
2018-05-23T04:22:10.081Z,9.50
2018-05-23T04:23:10.225Z,9.50
2018-05-23T04:24:10.363Z,9.80
2018-05-23T04:25:10.512Z,10.10
2018-05-23T04:26:10.655Z,9.00
2018-05-23T04:27:10.799Z,10.30
2018-05-23T04:28:10.942Z,9.90
2018-05-23T04:29:11.123Z,9.10
2018-05-23T04:30:11.262Z,9.30
2018-05-23T04:31:11.404Z,9.30
2018-05-23T04:32:11.545Z,10.10
2018-05-23T04:33:11.690Z,9.10
2018-05-23T04:34:11.833Z,8.60
2018-05-23T04:35:11.995Z,10.30
2018-05-23T04:36:12.138Z,9.40
2018-05-23T04:37:12.287Z,9.10
2018-05-23T04:38:12.428Z,9.10
2018-05-23T04:39:12.601Z,9.70
2018-05-23T04:40:12.717Z,9.10
2018-05-23T04:41:12.861Z,8.70
2018-05-23T04:42:13.000Z,8.40
2018-05-23T04:43:13.138Z,9.30
2018-05-23T04:44:13.336Z,8.20
2018-05-23T04:45:13.475Z,9.10
2018-05-23T04:46:13.622Z,9.40
2018-05-23T04:47:13.765Z,8.50
2018-05-23T04:48:13.915Z,8.70
2018-05-23T04:49:14.053Z,9.00
2018-05-23T04:50:14.198Z,8.30
2018-05-23T04:51:14.334Z,8.80
2018-05-23T04:52:14.469Z,8.30
2018-05-23T04:53:14.609Z,8.90
2018-05-23T04:54:14.750Z,11.00
2018-05-23T04:55:14.892Z,7.00
2018-05-23T04:56:15.061Z,7.90
2018-05-23T04:57:15.196Z,7.60
2018-05-23T04:58:15.330Z,8.30
2018-05-23T04:59:16.316Z,7.20
2018-05-23T05:00:15.610Z,7.90
2018-05-23T05:01:15.754Z,7.50
2018-05-23T05:02:15.887Z,6.70
2018-05-23T05:03:16.031Z,7.70
2018-05-23T05:04:16.170Z,7.20
2018-05-23T05:05:16.308Z,6.80
2018-05-23T05:06:16.453Z,6.70
2018-05-23T05:07:16.595Z,7.30
2018-05-23T05:08:17.338Z,7.00
2018-05-23T05:09:16.864Z,6.80
2018-05-23T05:10:17.008Z,6.90
2018-05-23T05:11:17.143Z,6.80
2018-05-23T05:12:17.287Z,6.40
2018-05-23T05:13:17.431Z,6.70
2018-05-23T05:14:17.579Z,7.10
2018-05-23T05:15:17.811Z,6.80
2018-05-23T05:16:17.835Z,6.60
2018-05-23T05:17:17.968Z,6.80
2018-05-23T05:18:18.116Z,7.60
2018-05-23T05:19:18.258Z,7.00
2018-05-23T05:20:18.397Z,7.40
2018-05-23T05:21:18.544Z,7.30
2018-05-23T05:22:18.688Z,7.60
2018-05-23T05:23:18.832Z,7.20
2018-05-23T05:24:18.970Z,7.00
2018-05-23T05:25:19.116Z,6.60
2018-05-23T05:26:19.259Z,9.10
2018-05-23T05:27:19.403Z,7.00
2018-05-23T05:28:19.545Z,7.60
2018-05-23T05:29:19.687Z,6.70
2018-05-23T05:30:19.827Z,7.00
2018-05-23T05:31:19.969Z,6.20
2018-05-23T05:32:20.119Z,6.70
2018-05-23T05:33:20.245Z,8.30
2018-05-23T05:34:20.390Z,6.90
2018-05-23T05:35:20.529Z,7.60
2018-05-23T05:36:20.666Z,6.50
2018-05-23T05:37:20.811Z,6.30
2018-05-23T05:38:20.953Z,9.20
2018-05-23T05:39:21.090Z,7.20
2018-05-23T05:40:21.245Z,9.50
2018-05-23T05:41:21.383Z,7.00
2018-05-23T05:42:21.525Z,7.10
2018-05-23T05:43:21.671Z,7.00
2018-05-23T05:44:21.809Z,7.80
2018-05-23T05:45:21.947Z,8.50
2018-05-23T05:46:22.090Z,10.60
2018-05-23T05:47:22.234Z,7.60
2018-05-23T05:48:22.376Z,6.60
2018-05-23T05:49:22.515Z,7.60
2018-05-23T05:50:22.652Z,7.60
2018-05-23T05:51:22.787Z,7.30
2018-05-23T05:52:23.022Z,7.50
2018-05-23T05:53:23.037Z,7.20
2018-05-23T05:54:23.180Z,6.80
2018-05-23T05:55:23.324Z,8.70
2018-05-23T05:56:23.471Z,7.70
2018-05-23T05:57:23.605Z,7.90
2018-05-23T05:58:23.755Z,8.40
2018-05-23T05:59:23.890Z,10.00
2018-05-23T06:00:24.046Z,9.60
2018-05-23T06:01:24.179Z,8.60
2018-05-23T06:02:24.322Z,9.90
2018-05-23T06:03:24.461Z,11.20
2018-05-23T06:04:24.609Z,9.40
2018-05-23T06:05:24.735Z,8.00
2018-05-23T06:06:24.884Z,9.70
2018-05-23T06:07:25.021Z,7.80
2018-05-23T06:08:25.167Z,9.50
2018-05-23T06:09:25.325Z,9.30
2018-05-23T06:10:25.453Z,6.60
2018-05-23T06:11:25.596Z,7.00
2018-05-23T06:12:25.748Z,6.10
2018-05-23T06:13:25.889Z,6.80
2018-05-23T06:14:26.039Z,8.30
2018-05-23T06:15:26.181Z,7.00
2018-05-23T06:16:26.326Z,8.10
2018-05-23T06:17:26.474Z,7.10
2018-05-23T06:18:26.624Z,6.60
2018-05-23T06:19:26.766Z,6.80
2018-05-23T06:20:26.910Z,8.00
2018-05-23T06:21:27.050Z,6.50
2018-05-23T06:22:27.189Z,6.10
2018-05-23T06:23:27.327Z,6.70
2018-05-23T06:24:27.469Z,7.90
2018-05-23T06:25:27.610Z,7.00
2018-05-23T06:26:27.747Z,6.20
2018-05-23T06:27:27.887Z,8.40
2018-05-23T06:28:28.031Z,6.40
2018-05-23T06:29:28.170Z,7.50
2018-05-23T06:30:28.432Z,7.90
2018-05-23T06:31:28.453Z,6.40
2018-05-23T06:32:28.605Z,9.00
2018-05-23T06:33:28.748Z,9.10
2018-05-23T06:34:28.890Z,8.30
2018-05-23T06:35:29.032Z,6.70
2018-05-23T06:36:29.186Z,6.10
2018-05-23T06:37:29.370Z,6.90
2018-05-23T06:38:29.462Z,5.70
2018-05-23T06:39:29.621Z,9.20
2018-05-23T06:40:29.757Z,6.30
2018-05-23T06:41:29.899Z,6.20
2018-05-23T06:42:30.043Z,5.50
2018-05-23T06:43:30.195Z,5.90
2018-05-23T06:44:30.330Z,6.00
2018-05-23T06:45:30.474Z,8.00
2018-05-23T06:46:30.618Z,8.50
2018-05-23T06:47:30.761Z,7.50
2018-05-23T06:48:30.905Z,7.30
2018-05-23T06:49:31.047Z,7.30
2018-05-23T06:50:31.191Z,6.20
2018-05-23T06:51:31.400Z,8.00
2018-05-23T06:52:31.423Z,5.60
2018-05-23T06:53:31.567Z,6.10
2018-05-23T06:54:31.713Z,8.30
2018-05-23T06:55:31.888Z,6.50
2018-05-23T06:56:31.995Z,6.70
2018-05-23T06:57:32.147Z,8.70
2018-05-23T06:58:32.288Z,6.60
2018-05-23T06:59:32.425Z,6.20
2018-05-23T07:00:32.569Z,6.20
2018-05-23T07:01:32.708Z,6.60
2018-05-23T07:02:32.849Z,8.10
2018-05-23T07:03:32.987Z,7.80
2018-05-23T07:04:33.133Z,7.50
2018-05-23T07:05:33.279Z,5.90
2018-05-23T07:06:33.424Z,5.70
2018-05-23T07:07:33.578Z,7.50
2018-05-23T07:08:33.716Z,6.70
2018-05-23T07:09:33.857Z,7.40
2018-05-23T07:10:33.996Z,7.30
2018-05-23T07:11:34.143Z,7.50
2018-05-23T07:12:34.289Z,6.50
2018-05-23T07:13:34.428Z,5.70
2018-05-23T07:14:34.565Z,6.30
2018-05-23T07:15:34.703Z,5.80
2018-05-23T07:16:34.849Z,5.50
2018-05-23T07:17:34.996Z,5.80
2018-05-23T07:18:35.132Z,5.70
2018-05-23T07:19:35.276Z,5.00
2018-05-23T07:20:35.418Z,6.70
2018-05-23T07:21:35.563Z,7.60
2018-05-23T07:22:35.703Z,6.40
2018-05-23T07:23:35.840Z,6.20
2018-05-23T07:24:35.984Z,5.70
2018-05-23T07:25:36.128Z,7.50
2018-05-23T07:26:36.261Z,5.90
2018-05-23T07:27:36.410Z,7.70
2018-05-23T07:28:36.557Z,7.80
2018-05-23T07:29:36.699Z,7.20
2018-05-23T07:30:36.840Z,15.70
2018-05-23T07:31:37.006Z,7.90
2018-05-23T07:32:37.128Z,9.60
2018-05-23T07:33:37.278Z,8.60
2018-05-23T07:34:37.430Z,7.20
2018-05-23T07:35:37.564Z,8.10
2018-05-23T07:36:37.713Z,8.60
2018-05-23T07:37:37.861Z,7.10
2018-05-23T07:38:38.003Z,6.40
2018-05-23T07:39:38.141Z,7.40
2018-05-23T07:40:38.280Z,8.70
2018-05-23T07:41:38.430Z,9.00
2018-05-23T07:42:38.570Z,12.00
2018-05-23T07:43:38.725Z,10.10
2018-05-23T07:44:38.855Z,7.10
2018-05-23T07:45:38.994Z,9.00
2018-05-23T07:46:39.143Z,6.90
2018-05-23T07:47:39.290Z,13.00
2018-05-23T07:48:39.431Z,8.40
2018-05-23T07:49:39.580Z,10.40
2018-05-23T07:50:39.728Z,9.10
2018-05-23T07:51:39.962Z,6.40
2018-05-23T07:52:40.011Z,6.50
2018-05-23T07:53:40.150Z,7.60
2018-05-23T07:54:40.301Z,9.30
2018-05-23T07:55:40.439Z,7.40
2018-05-23T07:56:40.592Z,8.00
2018-05-23T07:57:40.730Z,7.20
2018-05-23T07:58:40.877Z,9.00
2018-05-23T07:59:41.054Z,6.80
2018-05-23T08:00:41.199Z,6.50
2018-05-23T08:01:41.344Z,7.00
2018-05-23T08:02:41.508Z,8.30
2018-05-23T08:03:41.649Z,6.80
2018-05-23T08:04:41.794Z,9.40
2018-05-23T08:05:41.928Z,8.30
2018-05-23T08:06:42.078Z,7.70
2018-05-23T08:07:42.222Z,8.80
2018-05-23T08:08:42.360Z,7.10
2018-05-23T08:09:42.523Z,8.30
2018-05-23T08:10:42.674Z,7.60
2018-05-23T08:11:42.814Z,8.90
2018-05-23T08:12:42.956Z,9.60
2018-05-23T08:13:43.098Z,6.60
2018-05-23T08:14:43.253Z,10.80
2018-05-23T08:15:43.393Z,8.10
2018-05-23T08:16:43.535Z,7.80
2018-05-23T08:17:43.677Z,8.50
2018-05-23T08:18:43.826Z,7.90
2018-05-23T08:19:43.974Z,8.10
2018-05-23T08:20:44.116Z,7.10
2018-05-23T08:21:44.259Z,8.30
2018-05-23T08:22:44.408Z,7.10
2018-05-23T08:23:44.547Z,8.30
2018-05-23T08:24:44.692Z,8.00
2018-05-23T08:25:44.833Z,8.10
2018-05-23T08:26:44.990Z,8.90
2018-05-23T08:27:45.152Z,6.00
2018-05-23T08:28:45.294Z,8.00
2018-05-23T08:29:45.464Z,10.00
2018-05-23T08:30:45.583Z,6.30
2018-05-23T08:31:45.732Z,10.20
2018-05-23T08:32:45.868Z,8.70
2018-05-23T08:33:46.014Z,8.80
2018-05-23T08:34:46.155Z,7.60
2018-05-23T08:35:46.306Z,9.00
2018-05-23T08:36:46.444Z,7.60
2018-05-23T08:37:46.590Z,6.50
2018-05-23T08:38:46.759Z,7.80
2018-05-23T08:39:46.907Z,7.80
2018-05-23T08:40:47.055Z,10.50
2018-05-23T08:41:47.239Z,8.10
2018-05-23T08:42:47.389Z,7.80
2018-05-23T08:43:47.534Z,7.80
2018-05-23T08:44:47.683Z,8.00
2018-05-23T08:45:47.837Z,7.40
2018-05-23T08:46:47.982Z,8.70
2018-05-23T08:47:48.131Z,9.30
2018-05-23T08:48:48.271Z,9.90
2018-05-23T08:49:48.421Z,7.80
2018-05-23T08:50:48.562Z,9.50
2018-05-23T08:51:48.716Z,7.10
2018-05-23T08:52:48.858Z,7.70
2018-05-23T08:53:49.019Z,9.40
2018-05-23T08:54:49.167Z,7.30
2018-05-23T08:55:49.307Z,9.80
2018-05-23T08:56:49.477Z,7.10
2018-05-23T08:57:49.622Z,8.20
2018-05-23T08:58:49.763Z,6.90
2018-05-23T08:59:49.908Z,6.50
2018-05-23T09:00:50.055Z,6.70
2018-05-23T09:01:50.200Z,10.70
2018-05-23T09:02:50.330Z,10.00
2018-05-23T09:03:50.484Z,6.90
2018-05-23T09:04:50.688Z,9.10
2018-05-23T09:05:50.776Z,6.30
2018-05-23T09:06:50.926Z,7.30
2018-05-23T09:07:51.064Z,6.50
2018-05-23T09:08:51.250Z,7.40
2018-05-23T09:09:51.396Z,6.40
2018-05-23T09:10:51.531Z,8.80
2018-05-23T09:11:51.690Z,7.40
2018-05-23T09:12:51.830Z,8.90
2018-05-23T09:13:51.978Z,6.10
2018-05-23T09:14:52.119Z,7.30
2018-05-23T09:15:52.262Z,7.20
2018-05-23T09:16:52.409Z,9.20
2018-05-23T09:17:52.553Z,6.70
2018-05-23T09:18:52.700Z,7.00
2018-05-23T09:19:52.839Z,8.00
2018-05-23T09:20:52.985Z,6.40
2018-05-23T09:21:53.133Z,7.00
2018-05-23T09:22:53.275Z,10.30
2018-05-23T09:23:53.445Z,5.80
2018-05-23T09:24:53.596Z,7.00
2018-05-23T09:25:53.732Z,7.30
2018-05-23T09:26:53.878Z,6.90
2018-05-23T09:27:54.024Z,7.90
2018-05-23T09:28:54.160Z,6.30
2018-05-23T09:29:54.300Z,6.10
2018-05-23T09:30:54.452Z,8.60
2018-05-23T09:31:54.590Z,6.30
2018-05-23T09:32:54.733Z,8.50
2018-05-23T09:33:54.876Z,6.40
2018-05-23T09:34:55.020Z,8.40
2018-05-23T09:35:55.189Z,7.50
2018-05-23T09:36:55.337Z,6.80
2018-05-23T09:37:55.479Z,6.50
2018-05-23T09:38:55.621Z,6.60
2018-05-23T09:39:55.763Z,8.30
2018-05-23T09:40:55.908Z,5.70
2018-05-23T09:41:56.045Z,7.40
2018-05-23T09:42:56.193Z,7.20
2018-05-23T09:43:56.333Z,6.20
2018-05-23T09:44:56.481Z,8.30
2018-05-23T09:45:56.629Z,6.50
2018-05-23T09:46:56.764Z,9.00
2018-05-23T09:47:56.973Z,7.60
2018-05-23T09:48:56.990Z,6.20
2018-05-23T09:49:57.132Z,6.30
2018-05-23T09:50:57.269Z,7.30
2018-05-23T09:51:57.423Z,8.60
2018-05-23T09:52:57.564Z,7.70
2018-05-23T09:53:57.705Z,6.40
2018-05-23T09:54:57.900Z,6.30
2018-05-23T09:55:57.997Z,8.60
2018-05-23T09:56:58.148Z,5.90
2018-05-23T09:57:58.286Z,8.20
2018-05-23T09:58:58.429Z,5.90
2018-05-23T09:59:58.573Z,8.00
2018-05-23T10:00:58.720Z,8.70
2018-05-23T10:01:58.871Z,7.50
2018-05-23T10:02:59.007Z,7.20
2018-05-23T10:03:59.148Z,9.40
2018-05-23T10:04:59.293Z,10.70
2018-05-23T10:05:59.439Z,5.80
2018-05-23T10:06:59.579Z,8.40
2018-05-23T10:07:59.720Z,7.30
2018-05-23T10:08:59.869Z,6.40
2018-05-23T10:10:00.017Z,8.80
2018-05-23T10:11:00.159Z,7.40
2018-05-23T10:12:00.303Z,6.70
2018-05-23T10:13:00.449Z,8.50
2018-05-23T10:14:00.648Z,7.20
2018-05-23T10:15:00.742Z,6.80
2018-05-23T10:16:00.889Z,8.00
2018-05-23T10:17:01.033Z,10.50
2018-05-23T10:18:01.177Z,9.90
2018-05-23T10:19:01.316Z,8.90
2018-05-23T10:20:01.459Z,11.20
2018-05-23T10:21:01.604Z,6.30
2018-05-23T10:22:01.758Z,6.80
2018-05-23T10:23:01.891Z,8.00
2018-05-23T10:24:02.032Z,9.70
2018-05-23T10:25:02.181Z,7.90
2018-05-23T10:26:02.320Z,6.80
2018-05-23T10:27:02.467Z,7.10
2018-05-23T10:28:02.612Z,7.20
2018-05-23T10:29:02.751Z,9.20
2018-05-23T10:30:02.896Z,8.00
2018-05-23T10:31:03.040Z,6.40
2018-05-23T10:32:03.184Z,6.60
2018-05-23T10:33:03.331Z,6.20
2018-05-23T10:34:03.474Z,7.40
2018-05-23T10:35:03.621Z,7.40
2018-05-23T10:36:03.761Z,6.60
2018-05-23T10:37:03.905Z,10.30
2018-05-23T10:38:04.046Z,7.60
2018-05-23T10:39:04.245Z,7.10
2018-05-23T10:40:04.352Z,9.10
2018-05-23T10:41:04.495Z,7.00
2018-05-23T10:42:04.641Z,6.90
2018-05-23T10:43:04.794Z,7.70
2018-05-23T10:44:04.939Z,8.40
2018-05-23T10:45:05.080Z,7.30
2018-05-23T10:46:05.294Z,6.50
2018-05-23T10:47:05.380Z,6.80
2018-05-23T10:48:05.532Z,7.50
2018-05-23T10:49:05.667Z,7.70
2018-05-23T10:50:05.811Z,8.30
2018-05-23T10:51:05.961Z,7.70
2018-05-23T10:52:06.121Z,7.30
2018-05-23T10:53:06.250Z,6.10
2018-05-23T10:54:06.393Z,5.60
2018-05-23T10:55:06.554Z,8.10
2018-05-23T10:56:06.695Z,7.20
2018-05-23T10:57:06.844Z,6.90
2018-05-23T10:58:06.992Z,5.90
2018-05-23T10:59:07.134Z,8.60
2018-05-23T11:00:07.304Z,7.10
2018-05-23T11:01:07.428Z,8.20
2018-05-23T11:02:07.567Z,6.50
2018-05-23T11:03:07.713Z,7.20
2018-05-23T11:04:07.855Z,7.70
2018-05-23T11:05:08.001Z,7.40
2018-05-23T11:06:08.149Z,6.70
2018-05-23T11:07:08.295Z,7.60
2018-05-23T11:08:08.440Z,5.90
2018-05-23T11:09:08.586Z,6.00
2018-05-23T11:10:08.733Z,7.50
2018-05-23T11:11:08.881Z,8.30
2018-05-23T11:12:09.030Z,6.40
2018-05-23T11:13:09.169Z,5.50
2018-05-23T11:14:09.319Z,5.90
2018-05-23T11:15:09.510Z,6.80
2018-05-23T11:16:09.603Z,6.90
2018-05-23T11:17:09.752Z,7.90
2018-05-23T11:18:09.889Z,7.70
2018-05-23T11:19:10.037Z,6.90
2018-05-23T11:20:10.177Z,7.80
2018-05-23T11:21:10.334Z,6.70
2018-05-23T11:22:10.476Z,7.60
2018-05-23T11:23:10.625Z,9.50
2018-05-23T11:24:10.769Z,6.20
2018-05-23T11:25:10.915Z,6.30
2018-05-23T11:26:11.072Z,6.70
2018-05-23T11:27:11.218Z,5.40
2018-05-23T11:28:11.361Z,7.80
2018-05-23T11:29:11.506Z,6.10
2018-05-23T11:30:11.650Z,6.20
2018-05-23T11:31:11.799Z,6.50
2018-05-23T11:32:11.940Z,8.10
2018-05-23T11:33:12.085Z,8.00
2018-05-23T11:34:12.226Z,6.80
2018-05-23T11:35:12.379Z,9.20
2018-05-23T11:36:12.576Z,5.50
2018-05-23T11:37:12.708Z,7.00
2018-05-23T11:38:12.858Z,6.50
2018-05-23T11:39:12.996Z,5.90
2018-05-23T11:40:13.137Z,7.30
2018-05-23T11:41:13.284Z,9.30
2018-05-23T11:42:13.434Z,5.30
2018-05-23T11:43:13.576Z,5.30
2018-05-23T11:44:13.737Z,7.20
2018-05-23T11:45:13.884Z,7.00
2018-05-23T11:46:14.026Z,7.60
2018-05-23T11:47:14.167Z,5.50
2018-05-23T11:48:14.311Z,6.50
2018-05-23T11:49:14.462Z,5.30
2018-05-23T11:50:14.607Z,6.10
2018-05-23T11:51:14.756Z,5.80
2018-05-23T11:52:14.979Z,6.90
2018-05-23T11:53:15.055Z,8.60
2018-05-23T11:54:15.201Z,8.70
2018-05-23T11:55:15.348Z,6.80
2018-05-23T11:56:15.495Z,8.40
2018-05-23T11:57:15.654Z,9.30
2018-05-23T11:58:15.785Z,7.30
2018-05-23T11:59:15.929Z,6.70
2018-05-23T12:00:16.075Z,9.20
2018-05-23T12:01:16.241Z,8.10
2018-05-23T12:02:16.394Z,7.80
2018-05-23T12:03:16.542Z,6.80
2018-05-23T12:04:16.682Z,8.90
2018-05-23T12:05:16.829Z,21.20
2018-05-23T12:06:16.966Z,7.70
2018-05-23T12:07:17.111Z,8.70
2018-05-23T12:08:17.273Z,5.80
2018-05-23T12:09:17.415Z,7.70
2018-05-23T12:10:17.649Z,8.50
2018-05-23T12:11:17.701Z,10.40
2018-05-23T12:12:17.841Z,7.50
2018-05-23T12:13:17.988Z,9.30
2018-05-23T12:14:18.133Z,7.60
2018-05-23T12:15:18.276Z,8.10
2018-05-23T12:16:18.425Z,7.20
2018-05-23T12:17:18.578Z,7.70
2018-05-23T12:18:18.713Z,6.40
2018-05-23T12:19:18.857Z,7.20
2018-05-23T12:20:18.996Z,6.20
2018-05-23T12:21:19.143Z,7.60
2018-05-23T12:22:19.287Z,7.60
2018-05-23T12:23:19.437Z,8.60
2018-05-23T12:24:19.570Z,5.60
2018-05-23T12:25:19.721Z,5.90
2018-05-23T12:26:19.858Z,5.30
2018-05-23T12:27:20.000Z,5.90
2018-05-23T12:28:20.160Z,6.70
2018-05-23T12:29:20.296Z,5.00
2018-05-23T12:30:20.440Z,6.90
2018-05-23T12:31:20.594Z,7.10
2018-05-23T12:32:20.741Z,6.50
2018-05-23T12:33:20.894Z,4.50
2018-05-23T12:34:21.038Z,6.70
2018-05-23T12:35:21.245Z,5.30
2018-05-23T12:36:21.268Z,5.90
2018-05-23T12:37:21.431Z,5.40
2018-05-23T12:38:21.572Z,6.50
2018-05-23T12:39:21.715Z,5.90
2018-05-23T12:40:21.864Z,4.20
2018-05-23T12:41:22.006Z,6.70
2018-05-23T12:42:22.155Z,6.00
2018-05-23T12:43:22.300Z,6.50
2018-05-23T12:44:22.447Z,5.20
2018-05-23T12:45:22.640Z,6.70
2018-05-23T12:46:22.795Z,5.10
2018-05-23T12:47:22.946Z,6.60
2018-05-23T12:48:23.092Z,6.20
2018-05-23T12:49:23.234Z,8.80
2018-05-23T12:50:23.392Z,5.50
2018-05-23T12:51:23.538Z,5.80
2018-05-23T12:52:23.681Z,5.90
2018-05-23T12:53:23.829Z,5.00
2018-05-23T12:54:23.975Z,5.40
2018-05-23T12:55:24.123Z,6.60
2018-05-23T12:56:24.264Z,5.20
2018-05-23T12:57:24.412Z,5.30
2018-05-23T12:58:24.560Z,7.10
2018-05-23T12:59:24.703Z,7.60
2018-05-23T13:00:24.850Z,6.40
2018-05-23T13:01:24.999Z,5.50
2018-05-23T13:02:25.196Z,4.90
2018-05-23T13:03:25.418Z,4.80
2018-05-23T13:04:25.532Z,5.90
2018-05-23T13:05:25.630Z,6.00
2018-05-23T13:06:25.779Z,6.10
2018-05-23T13:07:25.922Z,6.40
2018-05-23T13:08:26.070Z,6.60
2018-05-23T13:09:26.215Z,6.20
2018-05-23T13:10:26.369Z,6.80
2018-05-23T13:11:26.513Z,6.50
2018-05-23T13:12:26.687Z,6.90
2018-05-23T13:13:26.811Z,7.70